createdAt,value
2024-05-09T00:01:17.258Z,13.31
2024-05-09T00:03:50.629Z,13.29
2024-05-09T00:06:23.069Z,13.20
2024-05-09T00:08:57.162Z,13.12
2024-05-09T00:11:33.144Z,13.04
2024-05-09T00:14:03.780Z,12.98
2024-05-09T00:16:34.781Z,12.92
2024-05-09T00:19:05.062Z,12.83
2024-05-09T00:21:37.491Z,12.76
2024-05-09T00:24:12.531Z,12.71
2024-05-09T00:26:42.804Z,12.69
2024-05-09T00:29:17.639Z,12.67
2024-05-09T00:31:49.760Z,12.58
2024-05-09T00:34:22.353Z,12.55
2024-05-09T00:36:55.077Z,12.54
2024-05-09T00:39:28.234Z,12.51
2024-05-09T00:41:59.819Z,12.48
2024-05-09T00:44:30.261Z,12.46
2024-05-09T00:47:09.477Z,12.44
2024-05-09T00:49:40.633Z,12.41
2024-05-09T00:52:14.688Z,12.41
2024-05-09T00:54:49.087Z,12.40
2024-05-09T00:57:24.484Z,12.38
2024-05-09T00:59:58.565Z,12.35
2024-05-09T01:02:31.063Z,12.32
2024-05-09T01:05:01.706Z,12.31
2024-05-09T01:07:32.842Z,12.30
2024-05-09T01:10:09.050Z,12.32
2024-05-09T01:12:41.387Z,12.33
2024-05-09T01:15:11.687Z,12.33
2024-05-09T01:17:42.181Z,12.33
2024-05-09T01:20:20.004Z,12.39
2024-05-09T01:22:58.744Z,12.40
2024-05-09T01:25:35.637Z,12.41
2024-05-09T01:28:06.327Z,12.44
2024-05-09T01:30:37.727Z,12.41
2024-05-09T01:33:13.021Z,12.38
2024-05-09T01:35:45.443Z,12.35
2024-05-09T01:38:20.301Z,12.33
2024-05-09T01:40:53.422Z,12.32
2024-05-09T01:43:25.699Z,12.30
2024-05-09T01:45:57.548Z,12.27
2024-05-09T01:48:29.039Z,12.22
2024-05-09T01:51:01.378Z,12.19
2024-05-09T01:53:31.867Z,12.16
2024-05-09T01:56:04.954Z,12.11
2024-05-09T01:58:35.845Z,12.06
2024-05-09T02:01:07.308Z,12.03
2024-05-09T02:03:38.849Z,11.96
2024-05-09T02:06:11.560Z,11.91
2024-05-09T02:08:44.625Z,11.87
2024-05-09T02:11:17.392Z,11.80
2024-05-09T02:13:51.391Z,11.77
2024-05-09T02:16:21.405Z,11.72
2024-05-09T02:18:52.475Z,11.71
2024-05-09T02:21:22.699Z,11.71
2024-05-09T02:23:53.099Z,11.66
2024-05-09T02:26:25.983Z,11.62
2024-05-09T02:28:56.102Z,11.62
2024-05-09T02:31:26.740Z,11.54
2024-05-09T02:33:58.447Z,11.53
2024-05-09T02:36:28.526Z,11.51
2024-05-09T02:38:55.780Z,11.49
2024-05-09T02:41:30.868Z,11.46
2024-05-09T02:44:00.731Z,11.43
2024-05-09T02:46:31.519Z,11.41
2024-05-09T02:48:59.705Z,11.40
2024-05-09T02:51:29.866Z,11.38
2024-05-09T02:54:00.217Z,11.37
2024-05-09T02:56:33.093Z,11.36
2024-05-09T02:59:02.230Z,11.31
2024-05-09T03:01:32.520Z,11.27
2024-05-09T03:04:02.847Z,11.22
2024-05-09T03:06:36.774Z,11.20
2024-05-09T03:09:04.997Z,11.15
2024-05-09T03:11:40.704Z,11.10
2024-05-09T03:14:16.303Z,11.09
2024-05-09T03:16:47.364Z,11.09
2024-05-09T03:19:14.808Z,11.07
2024-05-09T03:21:47.686Z,11.03
2024-05-09T03:24:14.925Z,11.00
2024-05-09T03:26:48.032Z,10.99
2024-05-09T03:29:20.859Z,10.95
2024-05-09T03:31:52.647Z,10.94
2024-05-09T03:34:20.980Z,10.91
2024-05-09T03:36:52.951Z,10.90
2024-05-09T03:39:23.013Z,10.86
2024-05-09T03:41:56.845Z,10.83
2024-05-09T03:44:30.397Z,10.81
2024-05-09T03:46:57.913Z,10.80
2024-05-09T03:49:31.290Z,10.78
2024-05-09T03:52:04.901Z,10.77
2024-05-09T03:54:37.025Z,10.73
2024-05-09T03:57:09.263Z,10.70
2024-05-09T03:59:39.699Z,10.66
2024-05-09T04:02:10.833Z,10.65
2024-05-09T04:04:45.103Z,10.63
2024-05-09T04:07:15.135Z,10.62
2024-05-09T04:09:45.506Z,10.64
2024-05-09T04:12:18.139Z,10.64
2024-05-09T04:14:47.844Z,10.64
2024-05-09T04:17:17.779Z,10.65
2024-05-09T04:19:47.567Z,10.64
2024-05-09T04:22:14.733Z,10.64
2024-05-09T04:24:44.694Z,10.65
2024-05-09T04:27:16.320Z,10.65
2024-05-09T04:29:46.342Z,10.68
2024-05-09T04:32:18.416Z,10.68
2024-05-09T04:34:45.783Z,10.70
2024-05-09T04:37:15.534Z,10.72
2024-05-09T04:39:45.168Z,10.73
2024-05-09T04:42:19.011Z,10.76
2024-05-09T04:44:49.134Z,10.77
2024-05-09T04:47:19.703Z,10.78
2024-05-09T04:49:50.484Z,10.77
2024-05-09T04:52:20.593Z,10.79
2024-05-09T04:54:48.578Z,10.82
2024-05-09T04:57:24.335Z,10.86
2024-05-09T04:59:51.902Z,10.87
2024-05-09T05:02:23.130Z,10.91
2024-05-09T05:04:51.104Z,10.91
2024-05-09T05:07:23.607Z,10.95
2024-05-09T05:09:53.249Z,10.98
2024-05-09T05:12:41.309Z,11.00
2024-05-09T05:15:12.151Z,11.05
2024-05-09T05:17:43.777Z,11.09
2024-05-09T05:20:17.889Z,11.15
2024-05-09T05:22:52.874Z,11.20
2024-05-09T05:25:25.581Z,11.24
2024-05-09T05:27:55.532Z,11.28
2024-05-09T05:30:29.290Z,11.34
2024-05-09T05:33:02.314Z,11.37
2024-05-09T05:35:32.813Z,11.42
2024-05-09T05:38:03.947Z,11.46
2024-05-09T05:40:37.164Z,11.53
2024-05-09T05:43:16.245Z,11.56
2024-05-09T05:45:46.821Z,11.63
2024-05-09T05:48:17.459Z,11.69
2024-05-09T05:50:48.551Z,11.73
2024-05-09T05:53:16.038Z,11.81
2024-05-09T05:55:46.305Z,11.86
2024-05-09T05:58:16.310Z,11.92
2024-05-09T06:00:46.574Z,11.95
2024-05-09T06:03:15.881Z,12.02
2024-05-09T06:05:46.121Z,12.07
2024-05-09T06:08:14.878Z,12.16
2024-05-09T06:10:47.196Z,12.24
2024-05-09T06:13:18.565Z,12.31
2024-05-09T06:15:48.855Z,12.40
2024-05-09T06:18:19.772Z,12.46
2024-05-09T06:20:50.237Z,12.54
2024-05-09T06:23:28.645Z,12.61
2024-05-09T06:26:02.311Z,12.70
2024-05-09T06:28:36.293Z,12.80
2024-05-09T06:31:07.012Z,12.88
2024-05-09T06:33:36.837Z,12.92
2024-05-09T06:36:08.388Z,13.07
2024-05-09T06:38:38.044Z,13.11
2024-05-09T06:41:08.664Z,13.18
2024-05-09T06:43:40.430Z,13.23
2024-05-09T06:46:14.490Z,13.28
2024-05-09T06:48:47.014Z,13.36
2024-05-09T06:51:17.341Z,13.42
2024-05-09T06:53:48.430Z,13.49
2024-05-09T06:56:18.277Z,13.57
2024-05-09T06:58:48.201Z,13.65
2024-05-09T07:01:21.869Z,13.68
2024-05-09T07:03:51.731Z,13.76
2024-05-09T07:06:25.127Z,13.83
2024-05-09T07:08:57.210Z,13.89
2024-05-09T07:11:31.468Z,13.98
2024-05-09T07:14:03.498Z,14.03
2024-05-09T07:16:36.029Z,14.12
2024-05-09T07:19:08.368Z,14.19
2024-05-09T07:21:40.756Z,14.28
2024-05-09T07:24:09.128Z,14.35
2024-05-09T07:26:41.820Z,14.42
2024-05-09T07:29:13.823Z,14.49
2024-05-09T07:31:45.232Z,14.58
2024-05-09T07:34:13.506Z,14.66
2024-05-09T07:36:43.815Z,14.75
2024-05-09T07:39:11.321Z,14.86
2024-05-09T07:41:42.769Z,14.90
2024-05-09T07:44:17.392Z,14.99
2024-05-09T07:47:52.279Z,15.04
2024-05-09T07:51:32.151Z,15.21
2024-05-09T07:53:33.205Z,15.20
2024-05-09T07:55:28.164Z,15.23
2024-05-09T07:58:02.056Z,15.35
2024-05-09T08:00:34.902Z,15.44
2024-05-09T08:03:07.714Z,15.52
2024-05-09T08:05:35.609Z,15.60
2024-05-09T08:08:08.359Z,15.70
2024-05-09T08:10:36.431Z,15.79
2024-05-09T08:13:09.190Z,15.87
2024-05-09T08:15:39.567Z,15.94
2024-05-09T08:18:11.520Z,16.03
2024-05-09T08:20:40.644Z,16.13
2024-05-09T08:23:15.556Z,16.19
2024-05-09T08:25:44.475Z,16.29
2024-05-09T08:28:15.696Z,16.39
2024-05-09T08:30:49.919Z,16.47
2024-05-09T08:33:22.361Z,16.56
2024-05-09T08:35:55.734Z,16.66
2024-05-09T08:41:14.459Z,16.87
2024-05-09T08:43:50.229Z,16.97
2024-05-09T08:46:22.953Z,17.04
2024-05-09T08:48:56.445Z,17.09
2024-05-09T08:51:25.081Z,17.19
2024-05-09T08:53:55.415Z,17.28
2024-05-09T08:56:28.668Z,17.36
2024-05-09T08:59:03.345Z,17.47
2024-05-09T09:01:40.116Z,17.56
2024-05-09T09:04:16.345Z,17.67
2024-05-09T09:06:53.142Z,17.78
2024-05-09T09:09:24.224Z,17.85
2024-05-09T09:11:55.034Z,17.94
2024-05-09T09:14:25.352Z,18.02
2024-05-09T09:16:56.768Z,18.10
2024-05-09T09:19:27.057Z,18.19
2024-05-09T09:21:56.051Z,18.26
2024-05-09T09:24:26.160Z,18.25
2024-05-09T09:26:53.707Z,18.30
2024-05-09T09:29:24.939Z,18.38
2024-05-09T09:32:01.247Z,18.50
2024-05-09T09:34:31.896Z,18.63
2024-05-09T09:37:03.997Z,18.72
2024-05-09T09:39:37.536Z,18.81
2024-05-09T09:42:08.443Z,18.94
2024-05-09T09:44:47.796Z,19.03
2024-05-09T09:47:28.242Z,19.13
2024-05-09T09:49:58.919Z,19.27
2024-05-09T09:52:27.514Z,19.45
2024-05-09T09:54:58.973Z,19.62
2024-05-09T09:57:33.022Z,19.81
2024-05-09T10:00:09.554Z,19.98
2024-05-09T10:02:48.600Z,20.08
2024-05-09T10:05:18.966Z,20.14
2024-05-09T10:07:47.410Z,20.16
2024-05-09T10:10:31.821Z,20.10
2024-05-09T10:13:06.821Z,20.13
2024-05-09T10:15:46.722Z,20.25
2024-05-09T10:18:17.475Z,20.28
2024-05-09T10:20:51.912Z,20.36
2024-05-09T10:23:25.933Z,20.35
2024-05-09T10:26:03.209Z,20.25
2024-05-09T10:28:37.194Z,20.13
2024-05-09T10:31:12.437Z,20.06
2024-05-09T10:33:48.722Z,19.95
2024-05-09T10:36:23.249Z,19.90
2024-05-09T10:38:54.338Z,20.03
2024-05-09T10:41:27.756Z,20.19
2024-05-09T10:43:57.151Z,20.30
2024-05-09T10:46:27.393Z,20.46
2024-05-09T10:49:00.334Z,20.63
2024-05-09T10:51:33.338Z,20.77
2024-05-09T10:54:03.400Z,20.83
2024-05-09T10:56:34.067Z,20.96
2024-05-09T10:59:04.603Z,21.28
2024-05-09T11:01:36.576Z,21.58
2024-05-09T11:04:15.812Z,21.86
2024-05-09T11:06:48.429Z,22.11
2024-05-09T11:09:18.619Z,22.33
2024-05-09T11:11:51.847Z,22.43
2024-05-09T11:14:19.163Z,22.49
2024-05-09T11:16:49.260Z,22.43
2024-05-09T11:19:21.044Z,22.33
2024-05-09T11:21:54.050Z,22.21
2024-05-09T11:24:23.731Z,22.12
2024-05-09T11:27:01.227Z,22.03
2024-05-09T11:29:37.648Z,22.00
2024-05-09T11:32:11.729Z,22.05
2024-05-09T11:34:46.322Z,22.08
2024-05-09T11:37:16.699Z,22.04
2024-05-09T11:40:06.793Z,22.03
2024-05-09T11:42:51.502Z,22.25
2024-05-09T11:45:22.609Z,22.56
2024-05-09T11:47:53.974Z,22.83
2024-05-09T11:50:29.834Z,23.04
2024-05-09T11:53:03.590Z,23.18
2024-05-09T11:55:31.151Z,23.16
2024-05-09T11:58:01.575Z,23.14
2024-05-09T12:00:36.596Z,23.09
2024-05-09T12:03:12.832Z,22.88
2024-05-09T12:05:46.789Z,22.70
2024-05-09T12:08:17.130Z,22.56
2024-05-09T12:10:47.117Z,22.43
2024-05-09T12:13:20.682Z,22.49
2024-05-09T12:15:48.019Z,22.68
2024-05-09T12:18:21.390Z,22.93
2024-05-09T12:20:51.585Z,23.18
2024-05-09T12:23:21.450Z,23.37
2024-05-09T12:25:51.581Z,23.51
2024-05-09T12:28:22.861Z,23.62
2024-05-09T12:30:50.771Z,23.73
2024-05-09T12:33:20.982Z,23.81
2024-05-09T12:35:52.080Z,23.91
2024-05-09T12:38:28.223Z,24.04
2024-05-09T12:40:56.274Z,24.18
2024-05-09T12:43:31.266Z,24.25
2024-05-09T12:45:58.790Z,24.36
2024-05-09T12:48:29.784Z,24.53
2024-05-09T12:51:02.946Z,24.55
2024-05-09T12:53:38.034Z,24.42
2024-05-09T12:56:09.449Z,24.33
2024-05-09T12:58:41.447Z,24.19
2024-05-09T13:01:10.803Z,23.97
2024-05-09T13:03:42.924Z,23.95
2024-05-09T13:06:13.376Z,24.07
2024-05-09T13:08:49.847Z,24.24
2024-05-09T13:11:19.125Z,24.52
2024-05-09T13:13:52.562Z,24.76
2024-05-09T13:16:20.457Z,25.03
2024-05-09T13:18:52.950Z,25.24
2024-05-09T13:21:25.044Z,25.44
2024-05-09T13:23:58.168Z,25.67
2024-05-09T13:26:26.309Z,25.72
2024-05-09T13:28:56.351Z,25.49
2024-05-09T13:31:24.461Z,25.47
2024-05-09T13:33:54.344Z,25.68
2024-05-09T13:36:24.739Z,25.82
2024-05-09T13:38:55.010Z,26.01
2024-05-09T13:41:23.367Z,26.13
2024-05-09T13:43:53.624Z,26.29
2024-05-09T13:46:21.473Z,26.48
2024-05-09T13:48:57.070Z,26.71
2024-05-09T13:51:27.116Z,26.66
2024-05-09T13:53:59.297Z,26.32
2024-05-09T13:56:26.721Z,26.07
2024-05-09T13:58:58.744Z,26.14
2024-05-09T14:01:26.337Z,26.41
2024-05-09T14:03:56.388Z,26.40
2024-05-09T14:06:29.690Z,26.15
2024-05-09T14:09:04.620Z,26.06
2024-05-09T14:11:39.991Z,26.24
2024-05-09T14:14:12.756Z,26.16
2024-05-09T14:16:44.699Z,26.23
2024-05-09T14:19:20.027Z,26.51
2024-05-09T14:21:50.028Z,26.73
2024-05-09T14:24:19.974Z,27.03
2024-05-09T14:26:50.089Z,27.01
2024-05-09T14:29:23.145Z,26.88
2024-05-09T14:31:53.015Z,26.81
2024-05-09T14:34:25.988Z,26.76
2024-05-09T14:37:01.672Z,27.13
2024-05-09T14:39:34.841Z,27.64
2024-05-09T14:42:04.055Z,28.03
2024-05-09T14:44:35.383Z,28.35
2024-05-09T14:47:09.522Z,28.49
2024-05-09T14:49:41.844Z,28.32
2024-05-09T14:52:14.913Z,28.06
2024-05-09T14:54:51.321Z,28.33
2024-05-09T14:57:21.263Z,28.66
2024-05-09T14:59:54.854Z,29.03
2024-05-09T15:02:24.820Z,29.31
2024-05-09T15:04:56.902Z,28.98
2024-05-09T15:07:27.246Z,28.85
2024-05-09T15:09:59.574Z,29.17
2024-05-09T15:12:29.203Z,29.56
2024-05-09T15:15:00.108Z,29.95
2024-05-09T15:17:28.391Z,30.41
2024-05-09T15:19:58.761Z,30.79
2024-05-09T15:22:29.931Z,31.07
2024-05-09T15:25:05.317Z,31.50
2024-05-09T15:27:33.263Z,31.93
2024-05-09T15:30:06.871Z,32.40
2024-05-09T15:32:38.047Z,33.09
2024-05-09T15:35:10.457Z,33.98
2024-05-09T15:37:41.966Z,35.14
2024-05-09T15:40:18.846Z,36.48
2024-05-09T15:42:54.746Z,38.49
2024-05-09T15:45:27.238Z,39.53
2024-05-09T15:47:54.867Z,38.06
2024-05-09T15:50:32.821Z,38.15
2024-05-09T15:53:12.280Z,38.90
2024-05-09T15:55:45.105Z,40.52
2024-05-09T15:58:14.480Z,42.07
2024-05-09T16:00:51.427Z,43.10
2024-05-09T16:03:21.181Z,44.29
2024-05-09T16:05:55.755Z,44.85
2024-05-09T16:08:29.203Z,45.32
2024-05-09T16:11:01.290Z,45.75
2024-05-09T16:13:32.225Z,46.50
2024-05-09T16:16:02.613Z,47.06
2024-05-09T16:18:32.559Z,47.60
2024-05-09T16:21:02.655Z,47.44
2024-05-09T16:23:33.236Z,45.75
2024-05-09T16:26:03.694Z,45.88
2024-05-09T16:28:31.350Z,46.62
2024-05-09T16:31:02.682Z,46.77
2024-05-09T16:33:33.509Z,47.12
2024-05-09T16:36:05.826Z,46.77
2024-05-09T16:38:35.672Z,45.83
2024-05-09T16:41:06.091Z,44.27
2024-05-09T16:43:34.044Z,43.00
2024-05-09T16:46:09.070Z,43.43
2024-05-09T16:48:37.738Z,44.12
2024-05-09T16:51:10.568Z,44.44
2024-05-09T16:53:42.973Z,43.63
2024-05-09T16:56:18.257Z,42.17
2024-05-09T16:58:45.599Z,41.74
2024-05-09T17:01:24.984Z,41.19
2024-05-09T17:03:55.930Z,39.86
2024-05-09T17:06:27.331Z,38.63
2024-05-09T17:09:08.124Z,37.51
2024-05-09T17:11:44.117Z,36.45
2024-05-09T17:14:16.870Z,35.68
2024-05-09T17:16:47.795Z,35.07
2024-05-09T17:19:24.220Z,34.45
2024-05-09T17:21:54.057Z,33.98
2024-05-09T17:24:30.552Z,33.55
2024-05-09T17:26:59.640Z,33.04
2024-05-09T17:29:32.144Z,32.53
2024-05-09T17:32:00.734Z,32.00
2024-05-09T17:34:31.163Z,31.43
2024-05-09T17:37:01.638Z,30.78
2024-05-09T17:39:34.737Z,30.21
2024-05-09T17:42:04.699Z,29.62
2024-05-09T17:44:36.857Z,28.90
2024-05-09T17:47:09.168Z,28.25
2024-05-09T17:49:40.504Z,27.72
2024-05-09T17:52:11.603Z,27.23
2024-05-09T17:54:47.039Z,27.08
2024-05-09T17:57:14.963Z,26.40
2024-05-09T17:59:45.758Z,26.07
2024-05-09T18:02:16.585Z,25.84
2024-05-09T18:04:48.118Z,25.51
2024-05-09T18:07:17.997Z,25.19
2024-05-09T18:09:51.796Z,24.94
2024-05-09T18:12:21.718Z,24.68
2024-05-09T18:14:52.096Z,24.44
2024-05-09T18:17:22.341Z,24.17
2024-05-09T18:19:54.093Z,23.91
2024-05-09T18:22:24.773Z,23.68
2024-05-09T18:25:02.198Z,23.43
2024-05-09T18:27:31.359Z,23.16
2024-05-09T18:30:11.679Z,22.91
2024-05-09T18:32:42.389Z,22.68
2024-05-09T18:35:14.241Z,22.51
2024-05-09T18:37:43.335Z,22.27
2024-05-09T18:40:24.816Z,22.08
2024-05-09T18:43:02.499Z,21.87
2024-05-09T18:45:34.024Z,21.69
2024-05-09T18:48:06.858Z,21.51
2024-05-09T18:50:42.474Z,21.35
2024-05-09T18:53:14.577Z,21.17
2024-05-09T18:55:48.719Z,21.02
2024-05-09T18:58:18.725Z,20.87
2024-05-09T19:00:51.238Z,20.69
2024-05-09T19:03:22.730Z,20.79
2024-05-09T19:05:55.262Z,20.76
2024-05-09T19:08:26.243Z,20.66
2024-05-09T19:11:03.972Z,20.52
2024-05-09T19:13:32.007Z,20.39
2024-05-09T19:16:03.213Z,20.27
2024-05-09T19:18:31.013Z,20.21
2024-05-09T19:21:01.373Z,20.10
2024-05-09T19:23:29.165Z,20.00
2024-05-09T19:25:59.275Z,19.92
2024-05-09T19:28:29.042Z,19.83
2024-05-09T19:30:59.324Z,19.72
2024-05-09T19:33:26.723Z,19.63
2024-05-09T19:35:58.885Z,19.56
2024-05-09T19:38:26.370Z,19.45
2024-05-09T19:40:56.417Z,19.37
2024-05-09T19:43:30.034Z,19.26
2024-05-09T19:46:01.412Z,19.15
2024-05-09T19:48:30.728Z,19.05
2024-05-09T19:51:03.483Z,18.96
2024-05-09T19:53:31.748Z,18.66
2024-05-09T19:56:01.751Z,18.56
2024-05-09T19:58:31.695Z,18.45
2024-05-09T20:01:03.992Z,18.37
2024-05-09T20:03:36.961Z,18.26
2024-05-09T20:06:07.987Z,18.12
2024-05-09T20:08:35.697Z,18.00
2024-05-09T20:11:05.827Z,17.88
2024-05-09T20:13:39.685Z,17.77
2024-05-09T20:16:12.293Z,17.66
2024-05-09T20:18:41.233Z,17.59
2024-05-09T20:21:13.309Z,17.50
2024-05-09T20:23:42.562Z,17.41
2024-05-09T20:26:15.039Z,17.34
2024-05-09T20:28:46.311Z,17.32
2024-05-09T20:31:22.134Z,17.25
2024-05-09T20:33:52.297Z,17.21
2024-05-09T20:36:23.232Z,17.14
2024-05-09T20:38:50.894Z,17.04
2024-05-09T20:41:23.956Z,16.98
2024-05-09T20:43:55.138Z,16.89
2024-05-09T20:46:25.248Z,16.84
2024-05-09T20:48:54.155Z,16.81
2024-05-09T20:51:30.246Z,16.75
2024-05-09T20:54:00.502Z,16.72
2024-05-09T20:56:33.748Z,16.66
2024-05-09T20:59:05.796Z,16.58
2024-05-09T21:01:35.804Z,16.54
2024-05-09T21:04:03.575Z,16.66
2024-05-09T21:06:33.535Z,16.65
2024-05-09T21:09:00.845Z,16.38
2024-05-09T21:11:30.891Z,16.27
2024-05-09T21:13:58.205Z,16.23
2024-05-09T21:16:33.877Z,16.16
2024-05-09T21:19:01.693Z,16.09
2024-05-09T21:21:31.893Z,16.05
2024-05-09T21:23:59.057Z,16.00
2024-05-09T21:26:32.334Z,15.92
2024-05-09T21:28:59.925Z,15.89
2024-05-09T21:31:32.327Z,15.89
2024-05-09T21:34:00.058Z,15.84
2024-05-09T21:36:32.293Z,15.79
2024-05-09T21:39:00.502Z,15.71
2024-05-09T21:41:30.307Z,15.65
2024-05-09T21:44:00.924Z,15.57
2024-05-09T21:46:34.982Z,15.51
2024-05-09T21:49:04.010Z,15.48
2024-05-09T21:51:35.176Z,15.44
2024-05-09T21:54:05.920Z,15.38
2024-05-09T21:56:37.024Z,15.31
2024-05-09T21:59:04.240Z,15.25
2024-05-09T22:01:37.477Z,15.18
2024-05-09T22:04:05.180Z,15.13
2024-05-09T22:06:35.392Z,15.00
2024-05-09T22:09:06.820Z,14.93
2024-05-09T22:11:36.910Z,14.92
2024-05-09T22:14:08.736Z,14.85
2024-05-09T22:16:44.726Z,14.81
2024-05-09T22:19:12.820Z,14.79
2024-05-09T22:21:42.990Z,14.74
2024-05-09T22:24:12.823Z,14.73
2024-05-09T22:26:42.878Z,14.73
2024-05-09T22:29:12.800Z,14.72
2024-05-09T22:31:46.005Z,14.70
2024-05-09T22:34:15.940Z,14.72
2024-05-09T22:36:49.792Z,14.67
2024-05-09T22:39:17.748Z,14.65
2024-05-09T22:41:52.403Z,14.59
2024-05-09T22:44:19.742Z,14.55
2024-05-09T22:46:52.902Z,14.50
2024-05-09T22:49:20.619Z,14.45
2024-05-09T22:51:50.526Z,14.41
2024-05-09T22:54:18.034Z,14.35
2024-05-09T22:56:50.773Z,14.32
2024-05-09T22:59:18.238Z,14.27
2024-05-09T23:01:48.628Z,14.24
2024-05-09T23:04:19.306Z,14.24
2024-05-09T23:06:49.470Z,14.23
2024-05-09T23:09:17.083Z,14.21
2024-05-09T23:11:47.755Z,14.18
2024-05-09T23:14:15.903Z,14.19
2024-05-09T23:16:46.145Z,14.16
2024-05-09T23:19:13.876Z,14.11
2024-05-09T23:21:46.462Z,14.09
2024-05-09T23:24:20.086Z,14.07
2024-05-09T23:26:50.929Z,14.05
2024-05-09T23:29:19.312Z,14.04
2024-05-09T23:31:51.105Z,14.05
2024-05-09T23:34:21.645Z,14.04
2024-05-09T23:36:55.047Z,14.05
2024-05-09T23:39:23.742Z,14.07
2024-05-09T23:41:54.270Z,14.08
2024-05-09T23:44:23.836Z,14.07
2024-05-09T23:46:53.955Z,14.09
2024-05-09T23:49:22.500Z,14.08
2024-05-09T23:51:57.762Z,14.07
2024-05-09T23:54:25.670Z,14.05
2024-05-09T23:56:59.651Z,14.08
2024-05-09T23:59:29.676Z,14.09
